sensor_id;sensor_type;location;lat;lon;timestamp;P1;durP1;ratioP1;P2;durP2;ratioP2
41755;SDS011;27435;48.480;9.258;2023-03-04T00:00:54;72.20;;;30.83;;
41755;SDS011;27435;48.480;9.258;2023-03-04T00:03:19;73.93;;;30.67;;
41755;SDS011;27435;48.480;9.258;2023-03-04T00:05:45;79.10;;;30.27;;
41755;SDS011;27435;48.480;9.258;2023-03-04T00:08:11;73.77;;;29.97;;
41755;SDS011;27435;48.480;9.258;2023-03-04T00:10:37;73.83;;;30.10;;
41755;SDS011;27435;48.480;9.258;2023-03-04T00:13:03;71.57;;;28.73;;
41755;SDS011;27435;48.480;9.258;2023-03-04T00:15:28;72.47;;;29.30;;
41755;SDS011;27435;48.480;9.258;2023-03-04T00:17:54;77.17;;;31.40;;
41755;SDS011;27435;48.480;9.258;2023-03-04T00:20:20;79.57;;;31.10;;
41755;SDS011;27435;48.480;9.258;2023-03-04T00:22:45;78.03;;;30.77;;
41755;SDS011;27435;48.480;9.258;2023-03-04T00:25:11;84.33;;;32.30;;
41755;SDS011;27435;48.480;9.258;2023-03-04T00:27:37;78.43;;;33.30;;
41755;SDS011;27435;48.480;9.258;2023-03-04T00:30:03;77.80;;;31.93;;
41755;SDS011;27435;48.480;9.258;2023-03-04T00:32:30;77.73;;;31.13;;
41755;SDS011;27435;48.480;9.258;2023-03-04T00:34:56;76.67;;;30.10;;
41755;SDS011;27435;48.480;9.258;2023-03-04T00:37:21;85.67;;;32.50;;
41755;SDS011;27435;48.480;9.258;2023-03-04T00:39:47;71.77;;;31.73;;
41755;SDS011;27435;48.480;9.258;2023-03-04T00:42:13;77.83;;;30.90;;
41755;SDS011;27435;48.480;9.258;2023-03-04T00:44:38;74.47;;;29.30;;
41755;SDS011;27435;48.480;9.258;2023-03-04T00:47:04;79.30;;;30.30;;
41755;SDS011;27435;48.480;9.258;2023-03-04T00:49:29;74.43;;;30.67;;
41755;SDS011;27435;48.480;9.258;2023-03-04T00:51:55;75.73;;;32.00;;
41755;SDS011;27435;48.480;9.258;2023-03-04T00:54:20;83.80;;;32.27;;
41755;SDS011;27435;48.480;9.258;2023-03-04T00:56:46;84.07;;;31.53;;
41755;SDS011;27435;48.480;9.258;2023-03-04T00:59:12;80.30;;;32.67;;
41755;SDS011;27435;48.480;9.258;2023-03-04T01:01:37;84.33;;;30.70;;
41755;SDS011;27435;48.480;9.258;2023-03-04T01:04:03;76.63;;;30.30;;
41755;SDS011;27435;48.480;9.258;2023-03-04T01:06:28;76.33;;;30.17;;
41755;SDS011;27435;48.480;9.258;2023-03-04T01:08:54;75.37;;;30.77;;
41755;SDS011;27435;48.480;9.258;2023-03-04T01:11:20;79.87;;;30.60;;
41755;SDS011;27435;48.480;9.258;2023-03-04T01:13:45;75.23;;;30.90;;
41755;SDS011;27435;48.480;9.258;2023-03-04T01:16:12;81.30;;;30.93;;
41755;SDS011;27435;48.480;9.258;2023-03-04T01:18:38;79.53;;;31.47;;
41755;SDS011;27435;48.480;9.258;2023-03-04T01:21:04;78.13;;;30.00;;
41755;SDS011;27435;48.480;9.258;2023-03-04T01:23:30;75.73;;;31.50;;
41755;SDS011;27435;48.480;9.258;2023-03-04T01:25:56;82.13;;;33.90;;
41755;SDS011;27435;48.480;9.258;2023-03-04T01:28:21;87.17;;;32.33;;
41755;SDS011;27435;48.480;9.258;2023-03-04T01:30:47;83.60;;;31.53;;
41755;SDS011;27435;48.480;9.258;2023-03-04T01:33:13;90.47;;;33.20;;
41755;SDS011;27435;48.480;9.258;2023-03-04T01:35:39;82.43;;;32.30;;
41755;SDS011;27435;48.480;9.258;2023-03-04T01:38:04;80.03;;;33.03;;
41755;SDS011;27435;48.480;9.258;2023-03-04T01:40:30;78.70;;;31.00;;
41755;SDS011;27435;48.480;9.258;2023-03-04T01:42:56;87.80;;;33.63;;
41755;SDS011;27435;48.480;9.258;2023-03-04T01:45:21;72.37;;;31.53;;
41755;SDS011;27435;48.480;9.258;2023-03-04T01:47:47;78.60;;;33.23;;
41755;SDS011;27435;48.480;9.258;2023-03-04T01:52:51;78.43;;;32.17;;
41755;SDS011;27435;48.480;9.258;2023-03-04T01:55:20;80.77;;;31.10;;
41755;SDS011;27435;48.480;9.258;2023-03-04T01:57:47;85.37;;;33.83;;
41755;SDS011;27435;48.480;9.258;2023-03-04T02:03:03;92.07;;;34.40;;
41755;SDS011;27435;48.480;9.258;2023-03-04T02:05:32;77.43;;;30.37;;
41755;SDS011;27435;48.480;9.258;2023-03-04T02:08:01;97.13;;;33.93;;
41755;SDS011;27435;48.480;9.258;2023-03-04T02:10:28;82.47;;;31.07;;
41755;SDS011;27435;48.480;9.258;2023-03-04T02:12:54;85.10;;;32.67;;
41755;SDS011;27435;48.480;9.258;2023-03-04T02:15:21;82.23;;;32.27;;
41755;SDS011;27435;48.480;9.258;2023-03-04T02:17:47;80.43;;;34.30;;
41755;SDS011;27435;48.480;9.258;2023-03-04T02:20:22;98.63;;;36.23;;
41755;SDS011;27435;48.480;9.258;2023-03-04T02:25:46;91.37;;;34.77;;
41755;SDS011;27435;48.480;9.258;2023-03-04T02:28:15;96.53;;;37.07;;
41755;SDS011;27435;48.480;9.258;2023-03-04T02:30:40;98.60;;;37.37;;
41755;SDS011;27435;48.480;9.258;2023-03-04T02:33:09;86.67;;;35.70;;
41755;SDS011;27435;48.480;9.258;2023-03-04T02:35:40;86.10;;;34.57;;
41755;SDS011;27435;48.480;9.258;2023-03-04T02:38:06;94.83;;;35.67;;
41755;SDS011;27435;48.480;9.258;2023-03-04T02:40:33;101.10;;;36.70;;
41755;SDS011;27435;48.480;9.258;2023-03-04T02:42:59;84.20;;;32.80;;
41755;SDS011;27435;48.480;9.258;2023-03-04T02:45:45;87.43;;;34.17;;
41755;SDS011;27435;48.480;9.258;2023-03-04T02:48:13;90.40;;;35.30;;
41755;SDS011;27435;48.480;9.258;2023-03-04T02:50:41;85.27;;;33.80;;
41755;SDS011;27435;48.480;9.258;2023-03-04T02:53:09;90.67;;;35.23;;
41755;SDS011;27435;48.480;9.258;2023-03-04T02:55:35;93.50;;;35.77;;
41755;SDS011;27435;48.480;9.258;2023-03-04T02:58:00;97.50;;;35.87;;
41755;SDS011;27435;48.480;9.258;2023-03-04T03:00:26;96.33;;;36.03;;
41755;SDS011;27435;48.480;9.258;2023-03-04T03:02:52;92.90;;;35.17;;
41755;SDS011;27435;48.480;9.258;2023-03-04T03:05:18;90.57;;;35.03;;
41755;SDS011;27435;48.480;9.258;2023-03-04T03:07:44;92.67;;;36.87;;
41755;SDS011;27435;48.480;9.258;2023-03-04T03:10:10;95.77;;;36.47;;
41755;SDS011;27435;48.480;9.258;2023-03-04T03:12:36;96.53;;;35.13;;
41755;SDS011;27435;48.480;9.258;2023-03-04T03:15:01;93.30;;;36.93;;
41755;SDS011;27435;48.480;9.258;2023-03-04T03:17:27;102.80;;;37.17;;
41755;SDS011;27435;48.480;9.258;2023-03-04T03:19:53;102.17;;;37.10;;
41755;SDS011;27435;48.480;9.258;2023-03-04T03:22:18;103.43;;;37.33;;
41755;SDS011;27435;48.480;9.258;2023-03-04T03:24:44;100.77;;;36.97;;
41755;SDS011;27435;48.480;9.258;2023-03-04T03:27:10;93.63;;;35.10;;
41755;SDS011;27435;48.480;9.258;2023-03-04T03:29:35;90.17;;;34.87;;
41755;SDS011;27435;48.480;9.258;2023-03-04T03:32:01;83.87;;;34.97;;
41755;SDS011;27435;48.480;9.258;2023-03-04T03:34:26;88.00;;;34.40;;
41755;SDS011;27435;48.480;9.258;2023-03-04T03:36:52;77.60;;;33.40;;
41755;SDS011;27435;48.480;9.258;2023-03-04T03:39:18;96.87;;;36.77;;
41755;SDS011;27435;48.480;9.258;2023-03-04T03:41:44;85.90;;;35.40;;
41755;SDS011;27435;48.480;9.258;2023-03-04T03:44:09;90.93;;;37.43;;
41755;SDS011;27435;48.480;9.258;2023-03-04T03:46:35;87.77;;;33.30;;
41755;SDS011;27435;48.480;9.258;2023-03-04T03:49:01;89.73;;;35.43;;
41755;SDS011;27435;48.480;9.258;2023-03-04T03:51:26;83.23;;;33.13;;
41755;SDS011;27435;48.480;9.258;2023-03-04T03:53:52;90.03;;;34.53;;
41755;SDS011;27435;48.480;9.258;2023-03-04T03:56:17;87.50;;;34.83;;
41755;SDS011;27435;48.480;9.258;2023-03-04T03:58:43;88.40;;;33.93;;
41755;SDS011;27435;48.480;9.258;2023-03-04T04:01:08;92.33;;;36.20;;
41755;SDS011;27435;48.480;9.258;2023-03-04T04:03:34;84.50;;;33.00;;
41755;SDS011;27435;48.480;9.258;2023-03-04T04:06:00;88.20;;;35.37;;
41755;SDS011;27435;48.480;9.258;2023-03-04T04:08:25;93.57;;;35.23;;
41755;SDS011;27435;48.480;9.258;2023-03-04T04:10:51;86.67;;;33.10;;
41755;SDS011;27435;48.480;9.258;2023-03-04T04:13:16;80.40;;;35.27;;
41755;SDS011;27435;48.480;9.258;2023-03-04T04:15:42;101.20;;;35.83;;
41755;SDS011;27435;48.480;9.258;2023-03-04T04:18:08;88.80;;;35.17;;
41755;SDS011;27435;48.480;9.258;2023-03-04T04:20:34;87.70;;;34.80;;
41755;SDS011;27435;48.480;9.258;2023-03-04T04:23:00;97.87;;;37.37;;
41755;SDS011;27435;48.480;9.258;2023-03-04T04:25:27;87.93;;;36.57;;
41755;SDS011;27435;48.480;9.258;2023-03-04T04:27:52;97.83;;;35.87;;
41755;SDS011;27435;48.480;9.258;2023-03-04T04:30:18;91.60;;;35.00;;
41755;SDS011;27435;48.480;9.258;2023-03-04T04:32:44;90.33;;;37.60;;
41755;SDS011;27435;48.480;9.258;2023-03-04T04:35:09;84.70;;;33.93;;
41755;SDS011;27435;48.480;9.258;2023-03-04T04:37:35;95.30;;;34.93;;
41755;SDS011;27435;48.480;9.258;2023-03-04T04:40:01;83.47;;;33.03;;
41755;SDS011;27435;48.480;9.258;2023-03-04T04:42:27;95.77;;;36.10;;
41755;SDS011;27435;48.480;9.258;2023-03-04T04:44:53;93.27;;;34.07;;
41755;SDS011;27435;48.480;9.258;2023-03-04T04:47:18;89.73;;;34.33;;
41755;SDS011;27435;48.480;9.258;2023-03-04T04:49:44;93.87;;;34.57;;
41755;SDS011;27435;48.480;9.258;2023-03-04T04:52:10;90.80;;;33.67;;
41755;SDS011;27435;48.480;9.258;2023-03-04T04:54:35;89.93;;;33.97;;
41755;SDS011;27435;48.480;9.258;2023-03-04T04:57:01;111.27;;;38.20;;
41755;SDS011;27435;48.480;9.258;2023-03-04T04:59:27;86.07;;;35.47;;
41755;SDS011;27435;48.480;9.258;2023-03-04T05:01:52;94.37;;;36.60;;
41755;SDS011;27435;48.480;9.258;2023-03-04T05:04:18;97.67;;;35.67;;
41755;SDS011;27435;48.480;9.258;2023-03-04T05:06:43;98.97;;;35.73;;
41755;SDS011;27435;48.480;9.258;2023-03-04T05:09:09;88.40;;;36.67;;
41755;SDS011;27435;48.480;9.258;2023-03-04T05:11:34;92.87;;;37.00;;
41755;SDS011;27435;48.480;9.258;2023-03-04T05:14:00;95.13;;;36.73;;
41755;SDS011;27435;48.480;9.258;2023-03-04T05:16:26;85.20;;;34.47;;
41755;SDS011;27435;48.480;9.258;2023-03-04T05:18:51;101.07;;;36.90;;
41755;SDS011;27435;48.480;9.258;2023-03-04T05:21:17;94.30;;;35.53;;
41755;SDS011;27435;48.480;9.258;2023-03-04T05:23:43;89.53;;;33.63;;
41755;SDS011;27435;48.480;9.258;2023-03-04T05:26:10;86.80;;;33.73;;
41755;SDS011;27435;48.480;9.258;2023-03-04T05:28:38;88.23;;;34.57;;
41755;SDS011;27435;48.480;9.258;2023-03-04T05:31:04;90.77;;;35.37;;
41755;SDS011;27435;48.480;9.258;2023-03-04T05:33:30;92.57;;;35.90;;
41755;SDS011;27435;48.480;9.258;2023-03-04T05:35:56;98.83;;;36.70;;
41755;SDS011;27435;48.480;9.258;2023-03-04T05:38:22;102.60;;;36.27;;
41755;SDS011;27435;48.480;9.258;2023-03-04T05:40:48;98.73;;;35.83;;
41755;SDS011;27435;48.480;9.258;2023-03-04T05:43:14;94.77;;;35.37;;
41755;SDS011;27435;48.480;9.258;2023-03-04T05:45:40;99.73;;;35.57;;
41755;SDS011;27435;48.480;9.258;2023-03-04T05:48:06;91.73;;;35.17;;
41755;SDS011;27435;48.480;9.258;2023-03-04T05:50:33;95.80;;;36.30;;
41755;SDS011;27435;48.480;9.258;2023-03-04T05:52:59;85.80;;;33.77;;
41755;SDS011;27435;48.480;9.258;2023-03-04T05:55:25;93.93;;;37.17;;
41755;SDS011;27435;48.480;9.258;2023-03-04T05:57:52;104.03;;;37.33;;
41755;SDS011;27435;48.480;9.258;2023-03-04T06:00:18;97.43;;;37.20;;
41755;SDS011;27435;48.480;9.258;2023-03-04T06:02:44;104.50;;;35.47;;
41755;SDS011;27435;48.480;9.258;2023-03-04T06:05:11;98.43;;;36.53;;
41755;SDS011;27435;48.480;9.258;2023-03-04T06:07:37;91.50;;;34.60;;
41755;SDS011;27435;48.480;9.258;2023-03-04T06:10:03;93.93;;;35.97;;
41755;SDS011;27435;48.480;9.258;2023-03-04T06:12:30;95.03;;;34.43;;
41755;SDS011;27435;48.480;9.258;2023-03-04T06:14:55;94.37;;;35.57;;
41755;SDS011;27435;48.480;9.258;2023-03-04T06:17:21;102.27;;;35.50;;
41755;SDS011;27435;48.480;9.258;2023-03-04T06:19:47;89.57;;;33.43;;
41755;SDS011;27435;48.480;9.258;2023-03-04T06:22:12;87.57;;;34.07;;
41755;SDS011;27435;48.480;9.258;2023-03-04T06:24:38;94.50;;;33.50;;
41755;SDS011;27435;48.480;9.258;2023-03-04T06:27:04;91.07;;;33.93;;
41755;SDS011;27435;48.480;9.258;2023-03-04T06:29:30;93.20;;;34.70;;
41755;SDS011;27435;48.480;9.258;2023-03-04T06:31:55;95.87;;;36.80;;
41755;SDS011;27435;48.480;9.258;2023-03-04T06:34:21;94.07;;;34.60;;
41755;SDS011;27435;48.480;9.258;2023-03-04T06:36:47;88.07;;;33.13;;
41755;SDS011;27435;48.480;9.258;2023-03-04T06:39:13;100.47;;;36.10;;
41755;SDS011;27435;48.480;9.258;2023-03-04T06:41:38;101.90;;;35.33;;
41755;SDS011;27435;48.480;9.258;2023-03-04T06:44:04;92.17;;;36.47;;
41755;SDS011;27435;48.480;9.258;2023-03-04T06:46:32;98.23;;;36.27;;
41755;SDS011;27435;48.480;9.258;2023-03-04T06:48:58;92.57;;;34.50;;
41755;SDS011;27435;48.480;9.258;2023-03-04T06:51:23;96.23;;;33.90;;
41755;SDS011;27435;48.480;9.258;2023-03-04T06:53:49;93.50;;;37.73;;
41755;SDS011;27435;48.480;9.258;2023-03-04T06:56:15;105.03;;;35.23;;
41755;SDS011;27435;48.480;9.258;2023-03-04T06:58:44;113.03;;;37.20;;
41755;SDS011;27435;48.480;9.258;2023-03-04T07:01:11;101.57;;;39.03;;
41755;SDS011;27435;48.480;9.258;2023-03-04T07:03:39;105.57;;;41.27;;
41755;SDS011;27435;48.480;9.258;2023-03-04T07:06:05;106.07;;;38.30;;
41755;SDS011;27435;48.480;9.258;2023-03-04T07:08:33;112.40;;;41.83;;
41755;SDS011;27435;48.480;9.258;2023-03-04T07:10:58;121.67;;;42.07;;
41755;SDS011;27435;48.480;9.258;2023-03-04T07:13:24;114.47;;;44.13;;
41755;SDS011;27435;48.480;9.258;2023-03-04T07:15:49;113.10;;;43.13;;
41755;SDS011;27435;48.480;9.258;2023-03-04T07:18:15;111.10;;;41.93;;
41755;SDS011;27435;48.480;9.258;2023-03-04T07:20:41;113.07;;;42.87;;
41755;SDS011;27435;48.480;9.258;2023-03-04T07:23:06;114.67;;;41.83;;
41755;SDS011;27435;48.480;9.258;2023-03-04T07:25:32;119.33;;;43.57;;
41755;SDS011;27435;48.480;9.258;2023-03-04T07:27:57;125.13;;;46.10;;
41755;SDS011;27435;48.480;9.258;2023-03-04T07:30:23;124.53;;;46.50;;
41755;SDS011;27435;48.480;9.258;2023-03-04T07:32:49;128.23;;;45.73;;
41755;SDS011;27435;48.480;9.258;2023-03-04T07:35:14;116.97;;;43.10;;
41755;SDS011;27435;48.480;9.258;2023-03-04T07:37:40;121.10;;;44.97;;
41755;SDS011;27435;48.480;9.258;2023-03-04T07:40:06;109.33;;;40.73;;
41755;SDS011;27435;48.480;9.258;2023-03-04T07:42:33;115.97;;;42.13;;
41755;SDS011;27435;48.480;9.258;2023-03-04T07:44:58;123.93;;;45.43;;
41755;SDS011;27435;48.480;9.258;2023-03-04T07:47:25;117.83;;;44.30;;
41755;SDS011;27435;48.480;9.258;2023-03-04T07:49:51;118.43;;;43.80;;
41755;SDS011;27435;48.480;9.258;2023-03-04T07:52:17;111.83;;;40.17;;
41755;SDS011;27435;48.480;9.258;2023-03-04T07:54:43;110.80;;;42.80;;
41755;SDS011;27435;48.480;9.258;2023-03-04T07:57:09;111.07;;;43.23;;
41755;SDS011;27435;48.480;9.258;2023-03-04T07:59:34;113.67;;;43.13;;
41755;SDS011;27435;48.480;9.258;2023-03-04T08:02:00;100.20;;;41.13;;
41755;SDS011;27435;48.480;9.258;2023-03-04T08:04:26;111.77;;;44.10;;
41755;SDS011;27435;48.480;9.258;2023-03-04T08:06:51;106.63;;;42.67;;
41755;SDS011;27435;48.480;9.258;2023-03-04T08:09:17;104.23;;;45.00;;
41755;SDS011;27435;48.480;9.258;2023-03-04T08:11:42;90.63;;;38.50;;
41755;SDS011;27435;48.480;9.258;2023-03-04T08:14:09;99.40;;;39.87;;
41755;SDS011;27435;48.480;9.258;2023-03-04T08:16:36;83.83;;;36.27;;
41755;SDS011;27435;48.480;9.258;2023-03-04T08:19:03;92.70;;;36.77;;
41755;SDS011;27435;48.480;9.258;2023-03-04T08:21:29;83.90;;;36.53;;
41755;SDS011;27435;48.480;9.258;2023-03-04T08:23:56;87.23;;;37.73;;
41755;SDS011;27435;48.480;9.258;2023-03-04T08:26:27;81.70;;;36.20;;
41755;SDS011;27435;48.480;9.258;2023-03-04T08:28:55;83.23;;;31.97;;
41755;SDS011;27435;48.480;9.258;2023-03-04T08:31:21;74.03;;;32.23;;
41755;SDS011;27435;48.480;9.258;2023-03-04T08:33:47;72.03;;;31.27;;
41755;SDS011;27435;48.480;9.258;2023-03-04T08:36:15;72.47;;;30.87;;
41755;SDS011;27435;48.480;9.258;2023-03-04T08:38:40;56.57;;;25.17;;
41755;SDS011;27435;48.480;9.258;2023-03-04T08:41:06;56.13;;;24.03;;
41755;SDS011;27435;48.480;9.258;2023-03-04T08:43:32;49.50;;;22.23;;
41755;SDS011;27435;48.480;9.258;2023-03-04T08:45:59;50.90;;;23.43;;
41755;SDS011;27435;48.480;9.258;2023-03-04T08:48:24;57.00;;;24.23;;
41755;SDS011;27435;48.480;9.258;2023-03-04T08:50:50;58.97;;;24.13;;
41755;SDS011;27435;48.480;9.258;2023-03-04T08:53:16;59.17;;;23.57;;
41755;SDS011;27435;48.480;9.258;2023-03-04T08:55:43;55.53;;;23.63;;
41755;SDS011;27435;48.480;9.258;2023-03-04T08:58:09;58.67;;;25.67;;
41755;SDS011;27435;48.480;9.258;2023-03-04T09:00:36;57.57;;;24.07;;
41755;SDS011;27435;48.480;9.258;2023-03-04T09:03:03;61.03;;;24.90;;
41755;SDS011;27435;48.480;9.258;2023-03-04T09:05:29;50.23;;;24.10;;
41755;SDS011;27435;48.480;9.258;2023-03-04T09:07:55;63.07;;;25.43;;
41755;SDS011;27435;48.480;9.258;2023-03-04T09:10:21;54.53;;;24.80;;
41755;SDS011;27435;48.480;9.258;2023-03-04T09:12:47;58.87;;;25.10;;
41755;SDS011;27435;48.480;9.258;2023-03-04T09:15:13;56.47;;;23.60;;
41755;SDS011;27435;48.480;9.258;2023-03-04T09:17:39;58.40;;;22.43;;
41755;SDS011;27435;48.480;9.258;2023-03-04T09:20:06;54.23;;;23.83;;
41755;SDS011;27435;48.480;9.258;2023-03-04T09:22:34;58.33;;;24.10;;
41755;SDS011;27435;48.480;9.258;2023-03-04T09:25:01;52.13;;;21.80;;
41755;SDS011;27435;48.480;9.258;2023-03-04T09:27:26;55.03;;;21.10;;
41755;SDS011;27435;48.480;9.258;2023-03-04T09:29:52;57.13;;;22.20;;
41755;SDS011;27435;48.480;9.258;2023-03-04T09:32:18;54.13;;;21.93;;
41755;SDS011;27435;48.480;9.258;2023-03-04T09:34:43;52.63;;;20.30;;
41755;SDS011;27435;48.480;9.258;2023-03-04T09:37:09;51.30;;;21.90;;
41755;SDS011;27435;48.480;9.258;2023-03-04T09:39:35;49.07;;;20.93;;
41755;SDS011;27435;48.480;9.258;2023-03-04T09:42:00;50.60;;;21.60;;
41755;SDS011;27435;48.480;9.258;2023-03-04T09:44:29;52.47;;;20.97;;
41755;SDS011;27435;48.480;9.258;2023-03-04T09:46:58;54.90;;;20.43;;
41755;SDS011;27435;48.480;9.258;2023-03-04T09:49:26;58.07;;;21.93;;
41755;SDS011;27435;48.480;9.258;2023-03-04T09:56:56;41.53;;;19.13;;
41755;SDS011;27435;48.480;9.258;2023-03-04T09:59:48;49.73;;;19.33;;
41755;SDS011;27435;48.480;9.258;2023-03-04T10:03:23;49.80;;;19.97;;
41755;SDS011;27435;48.480;9.258;2023-03-04T10:05:28;44.50;;;18.40;;
41755;SDS011;27435;48.480;9.258;2023-03-04T10:08:02;40.93;;;17.87;;
41755;SDS011;27435;48.480;9.258;2023-03-04T10:10:43;39.20;;;16.03;;
41755;SDS011;27435;48.480;9.258;2023-03-04T10:13:12;44.40;;;17.90;;
41755;SDS011;27435;48.480;9.258;2023-03-04T10:15:43;57.77;;;25.63;;
41755;SDS011;27435;48.480;9.258;2023-03-04T10:20:56;39.47;;;16.73;;
41755;SDS011;27435;48.480;9.258;2023-03-04T10:23:45;46.80;;;17.83;;
41755;SDS011;27435;48.480;9.258;2023-03-04T10:26:13;44.03;;;17.63;;
41755;SDS011;27435;48.480;9.258;2023-03-04T10:28:41;42.70;;;16.93;;
41755;SDS011;27435;48.480;9.258;2023-03-04T10:33:34;53.70;;;24.50;;
41755;SDS011;27435;48.480;9.258;2023-03-04T10:38:51;38.57;;;18.53;;
41755;SDS011;27435;48.480;9.258;2023-03-04T10:41:19;49.13;;;18.13;;
41755;SDS011;27435;48.480;9.258;2023-03-04T10:43:48;47.30;;;17.97;;
41755;SDS011;27435;48.480;9.258;2023-03-04T10:46:24;42.23;;;17.93;;
41755;SDS011;27435;48.480;9.258;2023-03-04T10:48:51;42.27;;;16.87;;
41755;SDS011;27435;48.480;9.258;2023-03-04T10:51:18;35.53;;;14.83;;
41755;SDS011;27435;48.480;9.258;2023-03-04T10:53:47;39.37;;;15.13;;
41755;SDS011;27435;48.480;9.258;2023-03-04T11:01:53;37.27;;;16.27;;
41755;SDS011;27435;48.480;9.258;2023-03-04T11:04:19;41.07;;;15.93;;
41755;SDS011;27435;48.480;9.258;2023-03-04T11:06:49;42.83;;;16.83;;
41755;SDS011;27435;48.480;9.258;2023-03-04T11:09:22;37.47;;;16.90;;
41755;SDS011;27435;48.480;9.258;2023-03-04T11:11:50;38.33;;;17.47;;
41755;SDS011;27435;48.480;9.258;2023-03-04T11:16:56;38.13;;;17.07;;
41755;SDS011;27435;48.480;9.258;2023-03-04T11:19:30;37.77;;;14.23;;
41755;SDS011;27435;48.480;9.258;2023-03-04T11:22:03;34.93;;;14.27;;
41755;SDS011;27435;48.480;9.258;2023-03-04T11:24:30;31.80;;;13.10;;
41755;SDS011;27435;48.480;9.258;2023-03-04T11:32:02;30.80;;;13.73;;
41755;SDS011;27435;48.480;9.258;2023-03-04T11:34:53;34.70;;;15.13;;
41755;SDS011;27435;48.480;9.258;2023-03-04T11:38:15;34.73;;;14.07;;
41755;SDS011;27435;48.480;9.258;2023-03-04T11:40:29;30.53;;;13.03;;
41755;SDS011;27435;48.480;9.258;2023-03-04T11:45:49;33.53;;;13.80;;
41755;SDS011;27435;48.480;9.258;2023-03-04T11:48:31;34.35;;;14.82;;
41755;SDS011;27435;48.480;9.258;2023-03-04T11:51:27;38.77;;;16.93;;
41755;SDS011;27435;48.480;9.258;2023-03-04T11:56:35;33.88;;;14.30;;
41755;SDS011;27435;48.480;9.258;2023-03-04T11:59:16;31.92;;;13.90;;
41755;SDS011;27435;48.480;9.258;2023-03-04T12:10:40;38.30;;;15.63;;
41755;SDS011;27435;48.480;9.258;2023-03-04T12:26:35;34.17;;;15.57;;
41755;SDS011;27435;48.480;9.258;2023-03-04T12:32:02;34.70;;;14.47;;
41755;SDS011;27435;48.480;9.258;2023-03-04T12:35:11;33.90;;;14.45;;
41755;SDS011;27435;48.480;9.258;2023-03-04T12:37:47;34.43;;;15.43;;
41755;SDS011;27435;48.480;9.258;2023-03-04T12:40:29;32.88;;;14.23;;
41755;SDS011;27435;48.480;9.258;2023-03-04T12:43:24;31.93;;;13.97;;
41755;SDS011;27435;48.480;9.258;2023-03-04T12:46:06;36.83;;;15.50;;
41755;SDS011;27435;48.480;9.258;2023-03-04T12:51:45;34.53;;;15.73;;
41755;SDS011;27435;48.480;9.258;2023-03-04T12:54:30;34.80;;;16.80;;
41755;SDS011;27435;48.480;9.258;2023-03-04T13:00:06;32.53;;;14.03;;
41755;SDS011;27435;48.480;9.258;2023-03-04T13:08:14;29.83;;;15.07;;
41755;SDS011;27435;48.480;9.258;2023-03-04T13:10:43;31.27;;;15.73;;
41755;SDS011;27435;48.480;9.258;2023-03-04T13:18:43;37.93;;;17.73;;
41755;SDS011;27435;48.480;9.258;2023-03-04T13:23:37;35.40;;;15.77;;
41755;SDS011;27435;48.480;9.258;2023-03-04T13:26:20;35.97;;;17.60;;
41755;SDS011;27435;48.480;9.258;2023-03-04T13:29:09;33.23;;;16.70;;
41755;SDS011;27435;48.480;9.258;2023-03-04T13:31:55;38.50;;;17.90;;
41755;SDS011;27435;48.480;9.258;2023-03-04T13:34:41;38.17;;;16.33;;
41755;SDS011;27435;48.480;9.258;2023-03-04T13:43:17;35.00;;;16.70;;
41755;SDS011;27435;48.480;9.258;2023-03-04T13:45:50;40.77;;;17.50;;
41755;SDS011;27435;48.480;9.258;2023-03-04T13:48:22;37.23;;;18.27;;
41755;SDS011;27435;48.480;9.258;2023-03-04T13:50:54;36.57;;;16.40;;
41755;SDS011;27435;48.480;9.258;2023-03-04T13:53:39;37.30;;;18.27;;
41755;SDS011;27435;48.480;9.258;2023-03-04T13:59:03;38.80;;;17.47;;
41755;SDS011;27435;48.480;9.258;2023-03-04T14:01:47;38.13;;;17.97;;
41755;SDS011;27435;48.480;9.258;2023-03-04T14:04:20;34.10;;;17.37;;
41755;SDS011;27435;48.480;9.258;2023-03-04T14:06:54;36.10;;;17.57;;
41755;SDS011;27435;48.480;9.258;2023-03-04T14:11:49;36.00;;;17.83;;
41755;SDS011;27435;48.480;9.258;2023-03-04T14:14:20;36.40;;;16.80;;
41755;SDS011;27435;48.480;9.258;2023-03-04T14:16:49;38.57;;;16.57;;
41755;SDS011;27435;48.480;9.258;2023-03-04T14:21:53;31.80;;;15.90;;
41755;SDS011;27435;48.480;9.258;2023-03-04T14:24:20;34.37;;;15.87;;
41755;SDS011;27435;48.480;9.258;2023-03-04T14:26:47;38.07;;;17.50;;
41755;SDS011;27435;48.480;9.258;2023-03-04T14:29:24;38.10;;;17.93;;
41755;SDS011;27435;48.480;9.258;2023-03-04T14:31:52;38.53;;;18.17;;
41755;SDS011;27435;48.480;9.258;2023-03-04T14:34:28;36.17;;;17.10;;
41755;SDS011;27435;48.480;9.258;2023-03-04T14:37:02;35.93;;;16.40;;
41755;SDS011;27435;48.480;9.258;2023-03-04T14:39:40;40.93;;;18.07;;
41755;SDS011;27435;48.480;9.258;2023-03-04T14:42:08;37.83;;;18.50;;
41755;SDS011;27435;48.480;9.258;2023-03-04T14:44:38;37.63;;;18.53;;
41755;SDS011;27435;48.480;9.258;2023-03-04T14:47:26;43.73;;;18.60;;
41755;SDS011;27435;48.480;9.258;2023-03-04T14:49:59;45.63;;;21.23;;
41755;SDS011;27435;48.480;9.258;2023-03-04T14:52:25;37.77;;;18.60;;
41755;SDS011;27435;48.480;9.258;2023-03-04T14:55:02;40.97;;;19.87;;
41755;SDS011;27435;48.480;9.258;2023-03-04T14:57:43;40.57;;;19.83;;
41755;SDS011;27435;48.480;9.258;2023-03-04T15:00:29;36.60;;;17.63;;
41755;SDS011;27435;48.480;9.258;2023-03-04T15:02:58;37.80;;;18.13;;
41755;SDS011;27435;48.480;9.258;2023-03-04T15:05:47;37.40;;;16.80;;
41755;SDS011;27435;48.480;9.258;2023-03-04T15:10:53;38.73;;;18.03;;
41755;SDS011;27435;48.480;9.258;2023-03-04T15:16:08;41.27;;;19.17;;
41755;SDS011;27435;48.480;9.258;2023-03-04T15:18:36;48.00;;;19.90;;
41755;SDS011;27435;48.480;9.258;2023-03-04T15:21:03;51.53;;;21.77;;
41755;SDS011;27435;48.480;9.258;2023-03-04T15:23:49;48.47;;;20.67;;
41755;SDS011;27435;48.480;9.258;2023-03-04T15:26:14;48.47;;;22.13;;
41755;SDS011;27435;48.480;9.258;2023-03-04T15:28:40;59.90;;;22.67;;
41755;SDS011;27435;48.480;9.258;2023-03-04T15:31:13;50.67;;;22.20;;
41755;SDS011;27435;48.480;9.258;2023-03-04T15:33:41;51.42;;;20.95;;
41755;SDS011;27435;48.480;9.258;2023-03-04T15:36:08;53.80;;;20.30;;
41755;SDS011;27435;48.480;9.258;2023-03-04T15:38:39;49.73;;;22.70;;
41755;SDS011;27435;48.480;9.258;2023-03-04T15:41:08;53.90;;;21.47;;
41755;SDS011;27435;48.480;9.258;2023-03-04T15:43:35;43.97;;;18.90;;
41755;SDS011;27435;48.480;9.258;2023-03-04T15:46:01;42.07;;;17.97;;
41755;SDS011;27435;48.480;9.258;2023-03-04T15:48:27;45.03;;;18.47;;
41755;SDS011;27435;48.480;9.258;2023-03-04T15:50:54;45.73;;;19.17;;
41755;SDS011;27435;48.480;9.258;2023-03-04T15:55:57;50.17;;;20.00;;
41755;SDS011;27435;48.480;9.258;2023-03-04T15:58:23;40.83;;;18.37;;
41755;SDS011;27435;48.480;9.258;2023-03-04T16:00:49;53.27;;;18.17;;
41755;SDS011;27435;48.480;9.258;2023-03-04T16:03:16;52.03;;;19.17;;
41755;SDS011;27435;48.480;9.258;2023-03-04T16:05:43;54.37;;;19.90;;
41755;SDS011;27435;48.480;9.258;2023-03-04T16:08:12;42.97;;;18.07;;
41755;SDS011;27435;48.480;9.258;2023-03-04T16:10:40;43.70;;;19.07;;
41755;SDS011;27435;48.480;9.258;2023-03-04T16:13:17;40.97;;;15.70;;
41755;SDS011;27435;48.480;9.258;2023-03-04T16:15:45;41.90;;;16.30;;